sensor_id;sensor_type;location;lat;lon;timestamp;pressure;altitude;pressure_sealevel;temperature;humidity
75646;BME280;64237;52.438;13.240;2023-07-30T00:01:14;100416.13;;;15.94;100.00
75646;BME280;64237;52.438;13.240;2023-07-30T00:03:39;100409.69;;;15.94;100.00
75646;BME280;64237;52.438;13.240;2023-07-30T00:06:05;100419.22;;;15.88;100.00
75646;BME280;64237;52.438;13.240;2023-07-30T00:08:30;100413.06;;;15.86;100.00
75646;BME280;64237;52.438;13.240;2023-07-30T00:10:58;100405.25;;;15.88;100.00
75646;BME280;64237;52.438;13.240;2023-07-30T00:13:24;100403.59;;;15.87;100.00
75646;BME280;64237;52.438;13.240;2023-07-30T00:15:50;100403.09;;;15.80;100.00
75646;BME280;64237;52.438;13.240;2023-07-30T00:18:15;100403.09;;;15.74;100.00
75646;BME280;64237;52.438;13.240;2023-07-30T00:20:41;100403.13;;;15.69;100.00
75646;BME280;64237;52.438;13.240;2023-07-30T00:23:06;100401.44;;;15.73;100.00
75646;BME280;64237;52.438;13.240;2023-07-30T00:25:32;100399.22;;;15.70;100.00
75646;BME280;64237;52.438;13.240;2023-07-30T00:27:57;100396.13;;;15.72;100.00
75646;BME280;64237;52.438;13.240;2023-07-30T00:30:22;100399.22;;;15.65;100.00
75646;BME280;64237;52.438;13.240;2023-07-30T00:32:48;100394.50;;;15.61;100.00
75646;BME280;64237;52.438;13.240;2023-07-30T00:35:13;100390.63;;;15.57;100.00
75646;BME280;64237;52.438;13.240;2023-07-30T00:37:38;100379.72;;;15.60;100.00
75646;BME280;64237;52.438;13.240;2023-07-30T00:40:04;100381.38;;;15.61;100.00
75646;BME280;64237;52.438;13.240;2023-07-30T00:42:30;100375.53;;;15.63;100.00
75646;BME280;64237;52.438;13.240;2023-07-30T00:44:55;100363.53;;;15.62;100.00
75646;BME280;64237;52.438;13.240;2023-07-30T00:47:21;100359.66;;;15.53;100.00
75646;BME280;64237;52.438;13.240;2023-07-30T00:49:48;100368.03;;;15.48;100.00
75646;BME280;64237;52.438;13.240;2023-07-30T00:52:16;100353.63;;;15.36;100.00
75646;BME280;64237;52.438;13.240;2023-07-30T00:54:42;100363.34;;;15.38;100.00
75646;BME280;64237;52.438;13.240;2023-07-30T00:57:09;100369.78;;;15.34;100.00
75646;BME280;64237;52.438;13.240;2023-07-30T00:59:35;100373.41;;;15.34;100.00
75646;BME280;64237;52.438;13.240;2023-07-30T01:02:02;100372.56;;;15.34;100.00
75646;BME280;64237;52.438;13.240;2023-07-30T01:04:28;100377.06;;;15.25;100.00
75646;BME280;64237;52.438;13.240;2023-07-30T01:06:54;100376.19;;;15.34;100.00
75646;BME280;64237;52.438;13.240;2023-07-30T01:09:20;100378.69;;;15.36;100.00
75646;BME280;64237;52.438;13.240;2023-07-30T01:11:45;100383.72;;;15.34;100.00
75646;BME280;64237;52.438;13.240;2023-07-30T01:14:12;100382.34;;;15.26;100.00
75646;BME280;64237;52.438;13.240;2023-07-30T01:16:39;100386.53;;;15.19;100.00
75646;BME280;64237;52.438;13.240;2023-07-30T01:19:05;100394.09;;;15.13;100.00
75646;BME280;64237;52.438;13.240;2023-07-30T01:21:35;100388.53;;;15.13;100.00
75646;BME280;64237;52.438;13.240;2023-07-30T01:24:00;100392.66;;;15.16;100.00
75646;BME280;64237;52.438;13.240;2023-07-30T01:26:36;100391.03;;;15.15;100.00
75646;BME280;64237;52.438;13.240;2023-07-30T01:29:07;100394.66;;;15.10;100.00
75646;BME280;64237;52.438;13.240;2023-07-30T01:31:35;100403.28;;;15.08;100.00
75646;BME280;64237;52.438;13.240;2023-07-30T01:34:03;100412.22;;;15.11;100.00
75646;BME280;64237;52.438;13.240;2023-07-30T01:36:28;100408.59;;;15.05;100.00
75646;BME280;64237;52.438;13.240;2023-07-30T01:38:56;100409.16;;;15.07;100.00
75646;BME280;64237;52.438;13.240;2023-07-30T01:41:22;100402.72;;;15.12;100.00
75646;BME280;64237;52.438;13.240;2023-07-30T01:43:49;100407.19;;;15.07;100.00
75646;BME280;64237;52.438;13.240;2023-07-30T01:46:15;100412.22;;;15.05;100.00
75646;BME280;64237;52.438;13.240;2023-07-30T01:48:40;100414.16;;;15.05;100.00
75646;BME280;64237;52.438;13.240;2023-07-30T01:51:05;100408.31;;;14.96;100.00
75646;BME280;64237;52.438;13.240;2023-07-30T01:53:31;100410.56;;;14.89;100.00
75646;BME280;64237;52.438;13.240;2023-07-30T01:55:56;100409.19;;;14.92;100.00
75646;BME280;64237;52.438;13.240;2023-07-30T01:58:21;100410.84;;;14.88;100.00
75646;BME280;64237;52.438;13.240;2023-07-30T02:00:47;100414.19;;;14.85;100.00
75646;BME280;64237;52.438;13.240;2023-07-30T02:03:12;100419.19;;;14.78;100.00
75646;BME280;64237;52.438;13.240;2023-07-30T02:05:37;100417.25;;;14.73;100.00
75646;BME280;64237;52.438;13.240;2023-07-30T02:08:03;100403.34;;;14.68;100.00
75646;BME280;64237;52.438;13.240;2023-07-30T02:10:28;100403.34;;;14.68;100.00
75646;BME280;64237;52.438;13.240;2023-07-30T02:12:53;100419.47;;;14.61;100.00
75646;BME280;64237;52.438;13.240;2023-07-30T02:15:19;100416.44;;;14.62;100.00
75646;BME280;64237;52.438;13.240;2023-07-30T02:17:44;100419.47;;;14.61;100.00
75646;BME280;64237;52.438;13.240;2023-07-30T02:20:09;100423.94;;;14.67;100.00
75646;BME280;64237;52.438;13.240;2023-07-30T02:22:35;100432.03;;;14.68;100.00
75646;BME280;64237;52.438;13.240;2023-07-30T02:25:00;100430.63;;;14.71;100.00
75646;BME280;64237;52.438;13.240;2023-07-30T02:27:25;100427.28;;;14.74;100.00
75646;BME280;64237;52.438;13.240;2023-07-30T02:29:51;100436.22;;;14.71;100.00
75646;BME280;64237;52.438;13.240;2023-07-30T02:32:16;100429.53;;;14.67;100.00
75646;BME280;64237;52.438;13.240;2023-07-30T02:34:41;100433.41;;;14.66;100.00
75646;BME280;64237;52.438;13.240;2023-07-30T02:37:07;100438.69;;;14.72;100.00
75646;BME280;64237;52.438;13.240;2023-07-30T02:39:32;100444.25;;;14.72;100.00
75646;BME280;64237;52.438;13.240;2023-07-30T02:41:57;100442.31;;;14.68;100.00
75646;BME280;64237;52.438;13.240;2023-07-30T02:44:23;100441.78;;;14.71;100.00
75646;BME280;64237;52.438;13.240;2023-07-30T02:46:48;100438.13;;;14.81;100.00
75646;BME280;64237;52.438;13.240;2023-07-30T02:49:13;100428.38;;;14.78;100.00
75646;BME280;64237;52.438;13.240;2023-07-30T02:51:39;100434.50;;;14.75;100.00
75646;BME280;64237;52.438;13.240;2023-07-30T02:54:05;100430.63;;;14.71;100.00
75646;BME280;64237;52.438;13.240;2023-07-30T02:56:30;100431.75;;;14.70;100.00
75646;BME280;64237;52.438;13.240;2023-07-30T02:58:58;100432.03;;;14.63;100.00
75646;BME280;64237;52.438;13.240;2023-07-30T03:01:23;100432.56;;;14.60;100.00
75646;BME280;64237;52.438;13.240;2023-07-30T03:03:49;100437.28;;;14.55;100.00
75646;BME280;64237;52.438;13.240;2023-07-30T03:06:14;100447.03;;;14.47;100.00
75646;BME280;64237;52.438;13.240;2023-07-30T03:08:41;100445.66;;;14.50;100.00
75646;BME280;64237;52.438;13.240;2023-07-30T03:11:07;100440.66;;;14.47;100.00
75646;BME280;64237;52.438;13.240;2023-07-30T03:13:32;100439.53;;;14.48;100.00
75646;BME280;64237;52.438;13.240;2023-07-30T03:15:58;100446.22;;;14.47;100.00
75646;BME280;64237;52.438;13.240;2023-07-30T03:18:26;100444.00;;;14.49;100.00
75646;BME280;64237;52.438;13.240;2023-07-30T03:20:51;100445.91;;;14.53;100.00
75646;BME280;64237;52.438;13.240;2023-07-30T03:23:16;100446.75;;;14.54;100.00
75646;BME280;64237;52.438;13.240;2023-07-30T03:25:42;100449.00;;;14.47;100.00
75646;BME280;64237;52.438;13.240;2023-07-30T03:28:07;100450.09;;;14.46;100.00
75646;BME280;64237;52.438;13.240;2023-07-30T03:30:32;100452.88;;;14.40;100.00
75646;BME280;64237;52.438;13.240;2023-07-30T03:32:57;100449.78;;;14.37;100.00
75646;BME280;64237;52.438;13.240;2023-07-30T03:35:23;100458.94;;;14.37;100.00
75646;BME280;64237;52.438;13.240;2023-07-30T03:37:48;100463.13;;;14.40;100.00
75646;BME280;64237;52.438;13.240;2023-07-30T03:40:13;100465.13;;;14.45;100.00
75646;BME280;64237;52.438;13.240;2023-07-30T03:42:39;100460.69;;;14.49;100.00
75646;BME280;64237;52.438;13.240;2023-07-30T03:45:05;100465.69;;;14.52;100.00
75646;BME280;64237;52.438;13.240;2023-07-30T03:47:30;100458.44;;;14.51;100.00
75646;BME280;64237;52.438;13.240;2023-07-30T03:49:55;100467.38;;;14.48;100.00
75646;BME280;64237;52.438;13.240;2023-07-30T03:52:21;100468.19;;;14.53;100.00
75646;BME280;64237;52.438;13.240;2023-07-30T03:54:46;100465.69;;;14.52;100.00
75646;BME280;64237;52.438;13.240;2023-07-30T03:57:11;100472.38;;;14.56;100.00
75646;BME280;64237;52.438;13.240;2023-07-30T03:59:37;100464.59;;;14.58;100.00
75646;BME280;64237;52.438;13.240;2023-07-30T04:02:02;100470.69;;;14.55;100.00
75646;BME280;64237;52.438;13.240;2023-07-30T04:04:28;100480.47;;;14.62;100.00
75646;BME280;64237;52.438;13.240;2023-07-30T04:06:53;100480.47;;;14.67;100.00
75646;BME280;64237;52.438;13.240;2023-07-30T04:09:19;100486.88;;;14.73;100.00
75646;BME280;64237;52.438;13.240;2023-07-30T04:11:44;100473.22;;;14.77;100.00
75646;BME280;64237;52.438;13.240;2023-07-30T04:14:09;100472.97;;;14.83;100.00
75646;BME280;64237;52.438;13.240;2023-07-30T04:16:35;100469.63;;;14.91;100.00
75646;BME280;64237;52.438;13.240;2023-07-30T04:19:00;100473.22;;;14.97;100.00
75646;BME280;64237;52.438;13.240;2023-07-30T04:21:25;100478.78;;;14.97;100.00
75646;BME280;64237;52.438;13.240;2023-07-30T04:23:51;100477.97;;;15.01;100.00
75646;BME280;64237;52.438;13.240;2023-07-30T04:26:17;100487.44;;;15.05;100.00
75646;BME280;64237;52.438;13.240;2023-07-30T04:28:42;100476.84;;;15.13;100.00
75646;BME280;64237;52.438;13.240;2023-07-30T04:31:07;100473.47;;;15.21;100.00
75646;BME280;64237;52.438;13.240;2023-07-30T04:33:33;100480.44;;;15.28;100.00
75646;BME280;64237;52.438;13.240;2023-07-30T04:35:58;100477.94;;;15.27;100.00
75646;BME280;64237;52.438;13.240;2023-07-30T04:38:23;100481.84;;;15.31;100.00
75646;BME280;64237;52.438;13.240;2023-07-30T04:40:49;100479.56;;;15.38;100.00
75646;BME280;64237;52.438;13.240;2023-07-30T04:43:14;100490.72;;;15.48;100.00
75646;BME280;64237;52.438;13.240;2023-07-30T04:45:40;100489.06;;;15.52;100.00
75646;BME280;64237;52.438;13.240;2023-07-30T04:48:05;100489.59;;;15.54;100.00
75646;BME280;64237;52.438;13.240;2023-07-30T04:50:30;100489.28;;;16.35;100.00
75646;BME280;64237;52.438;13.240;2023-07-30T04:52:56;100494.22;;;16.49;100.00
75646;BME280;64237;52.438;13.240;2023-07-30T04:55:21;100491.91;;;16.17;100.00
75646;BME280;64237;52.438;13.240;2023-07-30T04:57:47;100490.56;;;16.04;100.00
75646;BME280;64237;52.438;13.240;2023-07-30T05:00:12;100486.16;;;15.88;100.00
75646;BME280;64237;52.438;13.240;2023-07-30T05:02:38;100486.47;;;15.81;100.00
75646;BME280;64237;52.438;13.240;2023-07-30T05:05:03;100492.91;;;15.76;100.00
75646;BME280;64237;52.438;13.240;2023-07-30T05:07:29;100491.75;;;15.83;100.00
75646;BME280;64237;52.438;13.240;2023-07-30T05:09:54;100490.06;;;15.87;100.00
75646;BME280;64237;52.438;13.240;2023-07-30T05:12:19;100490.34;;;15.90;100.00
75646;BME280;64237;52.438;13.240;2023-07-30T05:14:44;100487.84;;;15.89;100.00
75646;BME280;64237;52.438;13.240;2023-07-30T05:17:10;100482.53;;;15.92;100.00
75646;BME280;64237;52.438;13.240;2023-07-30T05:19:35;100482.53;;;15.97;100.00
75646;BME280;64237;52.438;13.240;2023-07-30T05:22:00;100487.25;;;16.02;100.00
75646;BME280;64237;52.438;13.240;2023-07-30T05:24:27;100482.72;;;16.11;100.00
75646;BME280;64237;52.438;13.240;2023-07-30T05:26:52;100481.59;;;16.17;100.00
75646;BME280;64237;52.438;13.240;2023-07-30T05:29:17;100481.50;;;16.27;100.00
75646;BME280;64237;52.438;13.240;2023-07-30T05:31:43;100482.03;;;16.34;100.00
75646;BME280;64237;52.438;13.240;2023-07-30T05:34:08;100480.91;;;16.40;100.00
75646;BME280;64237;52.438;13.240;2023-07-30T05:36:33;100476.97;;;16.41;100.00
75646;BME280;64237;52.438;13.240;2023-07-30T05:38:59;100484.25;;;16.42;100.00
75646;BME280;64237;52.438;13.240;2023-07-30T05:41:24;100482.50;;;16.46;100.00
75646;BME280;64237;52.438;13.240;2023-07-30T05:43:49;100497.00;;;16.54;100.00
75646;BME280;64237;52.438;13.240;2023-07-30T05:46:15;100490.56;;;16.63;100.00
75646;BME280;64237;52.438;13.240;2023-07-30T05:48:40;100486.63;;;16.64;100.00
75646;BME280;64237;52.438;13.240;2023-07-30T05:51:05;100483.50;;;16.71;100.00
75646;BME280;64237;52.438;13.240;2023-07-30T05:53:31;100483.16;;;16.83;100.00
75646;BME280;64237;52.438;13.240;2023-07-30T05:55:56;100492.56;;;16.92;100.00
75646;BME280;64237;52.438;13.240;2023-07-30T05:58:21;100483.31;;;16.96;100.00
75646;BME280;64237;52.438;13.240;2023-07-30T06:00:47;100487.16;;;17.05;100.00
75646;BME280;64237;52.438;13.240;2023-07-30T06:03:12;100495.72;;;17.14;100.00
75646;BME280;64237;52.438;13.240;2023-07-30T06:05:41;100490.97;;;17.14;100.00
75646;BME280;64237;52.438;13.240;2023-07-30T06:08:07;100489.28;;;17.13;100.00
75646;BME280;64237;52.438;13.240;2023-07-30T06:10:37;100491.53;;;17.11;100.00
75646;BME280;64237;52.438;13.240;2023-07-30T06:13:05;100486.56;;;17.08;100.00
75646;BME280;64237;52.438;13.240;2023-07-30T06:15:31;100486.91;;;17.02;100.00
75646;BME280;64237;52.438;13.240;2023-07-30T06:17:57;100483.22;;;17.06;100.00
75646;BME280;64237;52.438;13.240;2023-07-30T06:20:22;100488.72;;;17.17;100.00
75646;BME280;64237;52.438;13.240;2023-07-30T06:22:48;100477.44;;;17.27;100.00
75646;BME280;64237;52.438;13.240;2023-07-30T06:25:13;100485.19;;;17.35;100.00
75646;BME280;64237;52.438;13.240;2023-07-30T06:27:38;100491.34;;;17.66;100.00
75646;BME280;64237;52.438;13.240;2023-07-30T06:30:04;100488.34;;;17.81;100.00
75646;BME280;64237;52.438;13.240;2023-07-30T06:32:30;100490.50;;;17.89;100.00
75646;BME280;64237;52.438;13.240;2023-07-30T06:34:55;100489.31;;;17.95;100.00
75646;BME280;64237;52.438;13.240;2023-07-30T06:37:21;100498.00;;;17.94;100.00
75646;BME280;64237;52.438;13.240;2023-07-30T06:39:46;100495.84;;;17.86;100.00
75646;BME280;64237;52.438;13.240;2023-07-30T06:42:11;100490.75;;;17.93;100.00
75646;BME280;64237;52.438;13.240;2023-07-30T06:44:37;100490.06;;;18.01;100.00
75646;BME280;64237;52.438;13.240;2023-07-30T06:47:02;100488.22;;;18.15;100.00
75646;BME280;64237;52.438;13.240;2023-07-30T06:49:27;100503.69;;;18.31;100.00
75646;BME280;64237;52.438;13.240;2023-07-30T06:51:53;100498.84;;;18.37;100.00
75646;BME280;64237;52.438;13.240;2023-07-30T06:54:19;100489.44;;;18.46;100.00
75646;BME280;64237;52.438;13.240;2023-07-30T06:56:45;100496.22;;;18.64;100.00
75646;BME280;64237;52.438;13.240;2023-07-30T06:59:10;100488.56;;;18.70;100.00
75646;BME280;64237;52.438;13.240;2023-07-30T07:01:35;100496.31;;;18.78;100.00
75646;BME280;64237;52.438;13.240;2023-07-30T07:04:01;100491.91;;;18.72;100.00
75646;BME280;64237;52.438;13.240;2023-07-30T07:06:26;100489.78;;;18.64;100.00
75646;BME280;64237;52.438;13.240;2023-07-30T07:08:51;100493.56;;;18.73;100.00
75646;BME280;64237;52.438;13.240;2023-07-30T07:11:17;100488.31;;;18.85;100.00
75646;BME280;64237;52.438;13.240;2023-07-30T07:13:42;100484.91;;;18.88;100.00
75646;BME280;64237;52.438;13.240;2023-07-30T07:16:07;100491.06;;;18.90;100.00
75646;BME280;64237;52.438;13.240;2023-07-30T07:18:33;100485.38;;;18.95;100.00
75646;BME280;64237;52.438;13.240;2023-07-30T07:20:58;100484.84;;;18.93;100.00
75646;BME280;64237;52.438;13.240;2023-07-30T07:23:23;100481.69;;;19.13;100.00
75646;BME280;64237;52.438;13.240;2023-07-30T07:25:49;100479.25;;;19.26;100.00
75646;BME280;64237;52.438;13.240;2023-07-30T07:28:14;100482.56;;;19.28;100.00
75646;BME280;64237;52.438;13.240;2023-07-30T07:30:39;100485.81;;;19.35;100.00
75646;BME280;64237;52.438;13.240;2023-07-30T07:33:05;100484.88;;;19.39;100.00
75646;BME280;64237;52.438;13.240;2023-07-30T07:35:36;100486.16;;;19.47;100.00
75646;BME280;64237;52.438;13.240;2023-07-30T07:38:02;100484.31;;;19.56;100.00
75646;BME280;64237;52.438;13.240;2023-07-30T07:40:27;100488.06;;;19.65;100.00
75646;BME280;64237;52.438;13.240;2023-07-30T07:42:54;100483.00;;;19.67;100.00
75646;BME280;64237;52.438;13.240;2023-07-30T07:45:20;100483.69;;;19.73;100.00
75646;BME280;64237;52.438;13.240;2023-07-30T07:47:45;100490.56;;;19.80;100.00
75646;BME280;64237;52.438;13.240;2023-07-30T07:50:11;100488.59;;;19.67;99.98
75646;BME280;64237;52.438;13.240;2023-07-30T07:52:36;100487.25;;;19.65;98.82
75646;BME280;64237;52.438;13.240;2023-07-30T07:55:01;100487.88;;;19.75;100.00
75646;BME280;64237;52.438;13.240;2023-07-30T07:57:27;100491.22;;;20.05;100.00
75646;BME280;64237;52.438;13.240;2023-07-30T07:59:54;100492.13;;;20.28;98.98
75646;BME280;64237;52.438;13.240;2023-07-30T08:02:20;100497.00;;;20.49;96.29
75646;BME280;64237;52.438;13.240;2023-07-30T08:04:45;100498.41;;;20.61;96.67
75646;BME280;64237;52.438;13.240;2023-07-30T08:07:10;100493.25;;;20.40;94.60
75646;BME280;64237;52.438;13.240;2023-07-30T08:09:36;100501.38;;;20.42;98.54
75646;BME280;64237;52.438;13.240;2023-07-30T08:12:01;100496.75;;;20.60;96.83
75646;BME280;64237;52.438;13.240;2023-07-30T08:14:27;100493.16;;;20.81;94.37
75646;BME280;64237;52.438;13.240;2023-07-30T08:16:52;100494.59;;;20.79;93.63
75646;BME280;64237;52.438;13.240;2023-07-30T08:19:17;100494.88;;;20.69;92.67
75646;BME280;64237;52.438;13.240;2023-07-30T08:21:43;100497.81;;;20.86;90.39
75646;BME280;64237;52.438;13.240;2023-07-30T08:24:08;100497.44;;;21.01;90.04
75646;BME280;64237;52.438;13.240;2023-07-30T08:26:34;100488.63;;;20.94;86.45
75646;BME280;64237;52.438;13.240;2023-07-30T08:28:59;100503.53;;;20.95;84.58
75646;BME280;64237;52.438;13.240;2023-07-30T08:31:24;100503.19;;;20.74;91.39
75646;BME280;64237;52.438;13.240;2023-07-30T08:33:50;100495.38;;;20.71;89.07
75646;BME280;64237;52.438;13.240;2023-07-30T08:36:15;100493.75;;;20.92;85.37
75646;BME280;64237;52.438;13.240;2023-07-30T08:38:40;100500.22;;;20.79;87.78
75646;BME280;64237;52.438;13.240;2023-07-30T08:41:06;100499.03;;;20.58;86.11
75646;BME280;64237;52.438;13.240;2023-07-30T08:43:32;100496.16;;;20.35;90.67
75646;BME280;64237;52.438;13.240;2023-07-30T08:45:57;100494.19;;;20.22;91.85
75646;BME280;64237;52.438;13.240;2023-07-30T08:48:24;100497.84;;;20.23;92.85
75646;BME280;64237;52.438;13.240;2023-07-30T08:50:50;100500.97;;;20.48;88.60
75646;BME280;64237;52.438;13.240;2023-07-30T08:53:16;100504.25;;;20.64;89.70
75646;BME280;64237;52.438;13.240;2023-07-30T08:55:43;100502.91;;;20.62;88.08
75646;BME280;64237;52.438;13.240;2023-07-30T08:58:09;100494.47;;;20.62;87.97
75646;BME280;64237;52.438;13.240;2023-07-30T09:00:38;100498.47;;;20.47;89.19
75646;BME280;64237;52.438;13.240;2023-07-30T09:03:04;100498.94;;;20.63;87.63
75646;BME280;64237;52.438;13.240;2023-07-30T09:05:30;100502.16;;;20.70;89.99
75646;BME280;64237;52.438;13.240;2023-07-30T09:07:56;100503.72;;;20.98;86.34
75646;BME280;64237;52.438;13.240;2023-07-30T09:10:23;100499.69;;;21.13;79.71
75646;BME280;64237;52.438;13.240;2023-07-30T09:12:55;100502.69;;;21.61;80.99
75646;BME280;64237;52.438;13.240;2023-07-30T09:15:37;100511.28;;;21.96;74.53
75646;BME280;64237;52.438;13.240;2023-07-30T09:18:06;100505.31;;;22.28;75.39
75646;BME280;64237;52.438;13.240;2023-07-30T09:20:41;100516.47;;;22.50;76.17
75646;BME280;64237;52.438;13.240;2023-07-30T09:23:07;100509.19;;;22.67;72.80
75646;BME280;64237;52.438;13.240;2023-07-30T09:25:34;100508.16;;;22.54;70.87
75646;BME280;64237;52.438;13.240;2023-07-30T09:28:00;100516.38;;;22.16;70.63
75646;BME280;64237;52.438;13.240;2023-07-30T09:30:26;100521.28;;;22.02;77.19
75646;BME280;64237;52.438;13.240;2023-07-30T09:32:56;100529.03;;;21.65;80.30
75646;BME280;64237;52.438;13.240;2023-07-30T09:35:22;100523.63;;;21.46;80.96
75646;BME280;64237;52.438;13.240;2023-07-30T09:37:50;100519.06;;;21.59;79.65
75646;BME280;64237;52.438;13.240;2023-07-30T09:40:30;100521.81;;;21.50;77.62
75646;BME280;64237;52.438;13.240;2023-07-30T09:42:57;100517.38;;;22.20;72.88
75646;BME280;64237;52.438;13.240;2023-07-30T09:45:24;100523.38;;;22.27;71.71
75646;BME280;64237;52.438;13.240;2023-07-30T09:47:51;100526.03;;;22.32;72.02
75646;BME280;64237;52.438;13.240;2023-07-30T09:50:17;100524.44;;;22.66;67.35
75646;BME280;64237;52.438;13.240;2023-07-30T09:52:42;100527.00;;;22.93;64.30
75646;BME280;64237;52.438;13.240;2023-07-30T09:55:09;100522.78;;;22.65;63.60
75646;BME280;64237;52.438;13.240;2023-07-30T09:57:35;100528.28;;;22.70;66.07
75646;BME280;64237;52.438;13.240;2023-07-30T10:00:02;100526.63;;;22.69;67.28
75646;BME280;64237;52.438;13.240;2023-07-30T10:02:29;100531.94;;;22.70;69.63
75646;BME280;64237;52.438;13.240;2023-07-30T10:04:59;100529.97;;;22.79;65.14
75646;BME280;64237;52.438;13.240;2023-07-30T10:07:26;100526.84;;;23.15;65.61
75646;BME280;64237;52.438;13.240;2023-07-30T10:09:56;100530.25;;;23.47;63.17
75646;BME280;64237;52.438;13.240;2023-07-30T10:12:28;100517.44;;;23.75;60.81
75646;BME280;64237;52.438;13.240;2023-07-30T10:14:56;100521.03;;;24.31;58.90
75646;BME280;64237;52.438;13.240;2023-07-30T10:17:21;100522.72;;;24.23;56.81
75646;BME280;64237;52.438;13.240;2023-07-30T10:19:48;100520.69;;;23.95;61.33
75646;BME280;64237;52.438;13.240;2023-07-30T10:24:40;100517.09;;;23.77;61.08
75646;BME280;64237;52.438;13.240;2023-07-30T10:27:07;100516.91;;;24.20;62.83
75646;BME280;64237;52.438;13.240;2023-07-30T10:29:34;100523.75;;;24.48;55.90
75646;BME280;64237;52.438;13.240;2023-07-30T10:32:01;100520.34;;;24.64;60.20
75646;BME280;64237;52.438;13.240;2023-07-30T10:34:46;100526.19;;;24.58;58.82
75646;BME280;64237;52.438;13.240;2023-07-30T10:37:20;100528.59;;;24.48;53.32
75646;BME280;64237;52.438;13.240;2023-07-30T10:39:48;100519.84;;;24.62;56.18
75646;BME280;64237;52.438;13.240;2023-07-30T10:42:14;100524.63;;;24.90;59.48
75646;BME280;64237;52.438;13.240;2023-07-30T10:44:43;100532.13;;;24.95;55.45
75646;BME280;64237;52.438;13.240;2023-07-30T10:47:09;100531.84;;;25.09;58.07
75646;BME280;64237;52.438;13.240;2023-07-30T10:49:38;100520.19;;;25.10;53.51
75646;BME280;64237;52.438;13.240;2023-07-30T10:52:06;100527.03;;;25.09;50.90
75646;BME280;64237;52.438;13.240;2023-07-30T10:54:35;100529.59;;;25.35;54.41
75646;BME280;64237;52.438;13.240;2023-07-30T10:57:00;100527.81;;;25.31;51.77
75646;BME280;64237;52.438;13.240;2023-07-30T10:59:26;100525.50;;;25.45;52.13
75646;BME280;64237;52.438;13.240;2023-07-30T11:01:52;100527.31;;;25.61;49.74
75646;BME280;64237;52.438;13.240;2023-07-30T11:04:19;100529.28;;;25.70;50.30
75646;BME280;64237;52.438;13.240;2023-07-30T11:06:50;100519.09;;;25.36;53.00
75646;BME280;64237;52.438;13.240;2023-07-30T11:09:20;100531.84;;;25.30;48.78
75646;BME280;64237;52.438;13.240;2023-07-30T11:11:46;100524.44;;;25.16;50.27
75646;BME280;64237;52.438;13.240;2023-07-30T11:14:21;100523.00;;;25.10;48.76
75646;BME280;64237;52.438;13.240;2023-07-30T11:16:52;100517.41;;;24.51;51.73
75646;BME280;64237;52.438;13.240;2023-07-30T11:19:18;100518.06;;;24.78;54.56
75646;BME280;64237;52.438;13.240;2023-07-30T11:21:44;100519.25;;;25.18;51.15
75646;BME280;64237;52.438;13.240;2023-07-30T11:24:10;100511.06;;;25.38;48.70
75646;BME280;64237;52.438;13.240;2023-07-30T11:26:35;100508.47;;;25.33;48.30
75646;BME280;64237;52.438;13.240;2023-07-30T11:29:16;100508.44;;;25.53;52.30
75646;BME280;64237;52.438;13.240;2023-07-30T11:31:43;100503.81;;;25.49;49.06
75646;BME280;64237;52.438;13.240;2023-07-30T11:34:09;100505.16;;;25.31;47.80
75646;BME280;64237;52.438;13.240;2023-07-30T11:36:34;100507.13;;;25.51;56.99
75646;BME280;64237;52.438;13.240;2023-07-30T11:39:00;100508.00;;;25.31;54.71
75646;BME280;64237;52.438;13.240;2023-07-30T11:41:27;100503.06;;;25.40;48.33
75646;BME280;64237;52.438;13.240;2023-07-30T11:43:53;100504.81;;;25.65;50.69
75646;BME280;64237;52.438;13.240;2023-07-30T11:46:19;100501.75;;;25.70;52.51
75646;BME280;64237;52.438;13.240;2023-07-30T11:48:51;100501.06;;;25.73;49.35
75646;BME280;64237;52.438;13.240;2023-07-30T11:51:25;100490.47;;;26.07;48.48
75646;BME280;64237;52.438;13.240;2023-07-30T11:53:58;100508.41;;;25.99;49.85
75646;BME280;64237;52.438;13.240;2023-07-30T11:56:24;100507.25;;;26.12;51.72
75646;BME280;64237;52.438;13.240;2023-07-30T11:58:53;100498.50;;;25.92;54.37
75646;BME280;64237;52.438;13.240;2023-07-30T12:01:19;100501.94;;;25.53;50.02
75646;BME280;64237;52.438;13.240;2023-07-30T12:03:44;100501.47;;;24.97;53.82
75646;BME280;64237;52.438;13.240;2023-07-30T12:06:11;100496.59;;;24.77;51.00
75646;BME280;64237;52.438;13.240;2023-07-30T12:08:36;100498.69;;;24.68;52.54
75646;BME280;64237;52.438;13.240;2023-07-30T12:11:07;100500.38;;;24.39;49.26
75646;BME280;64237;52.438;13.240;2023-07-30T12:13:32;100500.78;;;25.00;55.16
75646;BME280;64237;52.438;13.240;2023-07-30T12:15:59;100511.66;;;25.31;52.15
75646;BME280;64237;52.438;13.240;2023-07-30T12:18:26;100498.78;;;25.34;48.69
75646;BME280;64237;52.438;13.240;2023-07-30T12:20:53;100502.34;;;25.43;53.10
75646;BME280;64237;52.438;13.240;2023-07-30T12:23:19;100501.81;;;25.94;47.57
75646;BME280;64237;52.438;13.240;2023-07-30T12:25:46;100507.91;;;25.84;49.28
75646;BME280;64237;52.438;13.240;2023-07-30T12:28:12;100498.50;;;26.17;46.93
75646;BME280;64237;52.438;13.240;2023-07-30T12:30:38;100499.56;;;26.24;48.41